sensor_id;sensor_type;location;lat;lon;timestamp;P1;durP1;ratioP1;P2;durP2;ratioP2
10721;SDS011;5412;59.450;18.124;2023-10-19T00:00:04;2.13;;;1.10;;
10721;SDS011;5412;59.450;18.124;2023-10-19T00:02:51;1.20;;;1.10;;
10721;SDS011;5412;59.450;18.124;2023-10-19T00:05:16;2.73;;;1.20;;
10721;SDS011;5412;59.450;18.124;2023-10-19T00:07:42;1.23;;;1.10;;
10721;SDS011;5412;59.450;18.124;2023-10-19T00:10:09;1.20;;;0.90;;
10721;SDS011;5412;59.450;18.124;2023-10-19T00:12:35;1.20;;;1.07;;
10721;SDS011;5412;59.450;18.124;2023-10-19T00:15:02;1.30;;;1.20;;
10721;SDS011;5412;59.450;18.124;2023-10-19T00:17:29;1.00;;;0.90;;
10721;SDS011;5412;59.450;18.124;2023-10-19T00:19:57;1.20;;;1.00;;
10721;SDS011;5412;59.450;18.124;2023-10-19T00:22:43;1.50;;;0.90;;
10721;SDS011;5412;59.450;18.124;2023-10-19T00:25:09;3.57;;;1.20;;
10721;SDS011;5412;59.450;18.124;2023-10-19T00:27:38;1.10;;;1.00;;
10721;SDS011;5412;59.450;18.124;2023-10-19T00:30:05;1.43;;;0.87;;
10721;SDS011;5412;59.450;18.124;2023-10-19T00:32:31;2.10;;;1.00;;
10721;SDS011;5412;59.450;18.124;2023-10-19T00:34:59;0.73;;;0.73;;
10721;SDS011;5412;59.450;18.124;2023-10-19T00:37:33;1.00;;;0.90;;
10721;SDS011;5412;59.450;18.124;2023-10-19T00:40:07;1.20;;;1.10;;
10721;SDS011;5412;59.450;18.124;2023-10-19T00:42:58;1.23;;;0.90;;
10721;SDS011;5412;59.450;18.124;2023-10-19T00:45:30;1.20;;;0.90;;
10721;SDS011;5412;59.450;18.124;2023-10-19T00:47:58;2.90;;;1.00;;
10721;SDS011;5412;59.450;18.124;2023-10-19T00:50:25;1.20;;;0.90;;
10721;SDS011;5412;59.450;18.124;2023-10-19T00:52:55;0.83;;;0.83;;
10721;SDS011;5412;59.450;18.124;2023-10-19T00:55:23;2.13;;;1.10;;
10721;SDS011;5412;59.450;18.124;2023-10-19T00:57:52;1.23;;;0.90;;
10721;SDS011;5412;59.450;18.124;2023-10-19T01:00:19;1.10;;;1.00;;
10721;SDS011;5412;59.450;18.124;2023-10-19T01:02:59;1.13;;;1.03;;
10721;SDS011;5412;59.450;18.124;2023-10-19T01:05:26;0.80;;;0.80;;
10721;SDS011;5412;59.450;18.124;2023-10-19T01:08:00;2.90;;;0.97;;
10721;SDS011;5412;59.450;18.124;2023-10-19T01:10:27;1.00;;;0.90;;
10721;SDS011;5412;59.450;18.124;2023-10-19T01:12:54;1.83;;;1.47;;
10721;SDS011;5412;59.450;18.124;2023-10-19T01:15:20;1.60;;;1.00;;
10721;SDS011;5412;59.450;18.124;2023-10-19T01:17:53;1.33;;;0.90;;
10721;SDS011;5412;59.450;18.124;2023-10-19T01:20:30;0.90;;;0.90;;
10721;SDS011;5412;59.450;18.124;2023-10-19T01:23:00;1.70;;;1.00;;
10721;SDS011;5412;59.450;18.124;2023-10-19T01:25:54;1.27;;;1.00;;
10721;SDS011;5412;59.450;18.124;2023-10-19T01:28:19;1.57;;;0.90;;
10721;SDS011;5412;59.450;18.124;2023-10-19T01:30:49;1.60;;;1.10;;
10721;SDS011;5412;59.450;18.124;2023-10-19T01:33:18;3.87;;;1.40;;
10721;SDS011;5412;59.450;18.124;2023-10-19T01:35:44;4.47;;;1.40;;
10721;SDS011;5412;59.450;18.124;2023-10-19T01:38:29;1.13;;;0.80;;
10721;SDS011;5412;59.450;18.124;2023-10-19T01:40:59;2.00;;;1.07;;
10721;SDS011;5412;59.450;18.124;2023-10-19T01:43:29;1.10;;;0.80;;
10721;SDS011;5412;59.450;18.124;2023-10-19T01:46:00;3.40;;;1.10;;
10721;SDS011;5412;59.450;18.124;2023-10-19T01:48:31;2.77;;;0.90;;
10721;SDS011;5412;59.450;18.124;2023-10-19T01:51:04;1.23;;;0.90;;
10721;SDS011;5412;59.450;18.124;2023-10-19T01:53:31;1.03;;;0.93;;
10721;SDS011;5412;59.450;18.124;2023-10-19T01:55:58;1.77;;;0.83;;
10721;SDS011;5412;59.450;18.124;2023-10-19T01:58:24;3.20;;;1.20;;
10721;SDS011;5412;59.450;18.124;2023-10-19T02:00:50;1.67;;;0.80;;
10721;SDS011;5412;59.450;18.124;2023-10-19T02:03:20;4.27;;;1.03;;
10721;SDS011;5412;59.450;18.124;2023-10-19T02:05:56;0.90;;;0.77;;
10721;SDS011;5412;59.450;18.124;2023-10-19T02:08:31;1.70;;;0.87;;
10721;SDS011;5412;59.450;18.124;2023-10-19T02:10:56;0.97;;;0.80;;
10721;SDS011;5412;59.450;18.124;2023-10-19T02:13:22;1.43;;;0.90;;
10721;SDS011;5412;59.450;18.124;2023-10-19T02:15:48;1.37;;;0.80;;
10721;SDS011;5412;59.450;18.124;2023-10-19T02:18:16;1.40;;;0.70;;
10721;SDS011;5412;59.450;18.124;2023-10-19T02:20:42;1.67;;;1.00;;
10721;SDS011;5412;59.450;18.124;2023-10-19T02:23:13;0.70;;;0.60;;
10721;SDS011;5412;59.450;18.124;2023-10-19T02:25:39;3.33;;;0.70;;
10721;SDS011;5412;59.450;18.124;2023-10-19T02:28:05;1.67;;;0.80;;
10721;SDS011;5412;59.450;18.124;2023-10-19T02:30:34;1.23;;;1.00;;
10721;SDS011;5412;59.450;18.124;2023-10-19T02:33:00;1.30;;;0.70;;
10721;SDS011;5412;59.450;18.124;2023-10-19T02:35:28;2.73;;;0.83;;
10721;SDS011;5412;59.450;18.124;2023-10-19T02:37:55;1.50;;;0.83;;
10721;SDS011;5412;59.450;18.124;2023-10-19T02:40:20;0.90;;;0.80;;
10721;SDS011;5412;59.450;18.124;2023-10-19T02:42:48;3.23;;;1.10;;
10721;SDS011;5412;59.450;18.124;2023-10-19T02:45:18;0.70;;;0.70;;
10721;SDS011;5412;59.450;18.124;2023-10-19T02:47:45;0.80;;;0.80;;
10721;SDS011;5412;59.450;18.124;2023-10-19T02:50:11;1.87;;;1.00;;
10721;SDS011;5412;59.450;18.124;2023-10-19T02:52:47;1.50;;;0.77;;
10721;SDS011;5412;59.450;18.124;2023-10-19T02:55:14;1.30;;;1.00;;
10721;SDS011;5412;59.450;18.124;2023-10-19T02:57:43;1.33;;;0.80;;
10721;SDS011;5412;59.450;18.124;2023-10-19T03:00:12;1.97;;;0.73;;
10721;SDS011;5412;59.450;18.124;2023-10-19T03:02:40;0.70;;;0.70;;
10721;SDS011;5412;59.450;18.124;2023-10-19T03:05:06;1.10;;;0.90;;
10721;SDS011;5412;59.450;18.124;2023-10-19T03:07:39;2.17;;;0.80;;
10721;SDS011;5412;59.450;18.124;2023-10-19T03:10:11;2.90;;;0.70;;
10721;SDS011;5412;59.450;18.124;2023-10-19T03:12:57;1.13;;;0.80;;
10721;SDS011;5412;59.450;18.124;2023-10-19T03:15:23;0.70;;;0.70;;
10721;SDS011;5412;59.450;18.124;2023-10-19T03:17:48;0.70;;;0.70;;
10721;SDS011;5412;59.450;18.124;2023-10-19T03:20:14;2.80;;;1.10;;
10721;SDS011;5412;59.450;18.124;2023-10-19T03:22:43;0.93;;;0.70;;
10721;SDS011;5412;59.450;18.124;2023-10-19T03:25:11;1.63;;;0.83;;
10721;SDS011;5412;59.450;18.124;2023-10-19T03:27:57;0.73;;;0.73;;
10721;SDS011;5412;59.450;18.124;2023-10-19T03:30:30;1.87;;;0.80;;
10721;SDS011;5412;59.450;18.124;2023-10-19T03:32:56;2.47;;;1.00;;
10721;SDS011;5412;59.450;18.124;2023-10-19T03:35:24;0.60;;;0.60;;
10721;SDS011;5412;59.450;18.124;2023-10-19T03:37:50;2.13;;;0.93;;
10721;SDS011;5412;59.450;18.124;2023-10-19T03:40:16;3.43;;;1.23;;
10721;SDS011;5412;59.450;18.124;2023-10-19T03:42:52;1.33;;;0.87;;
10721;SDS011;5412;59.450;18.124;2023-10-19T03:45:20;2.10;;;1.00;;
10721;SDS011;5412;59.450;18.124;2023-10-19T03:47:52;1.47;;;1.00;;
10721;SDS011;5412;59.450;18.124;2023-10-19T03:50:32;2.73;;;1.00;;
10721;SDS011;5412;59.450;18.124;2023-10-19T03:52:58;1.27;;;0.90;;
10721;SDS011;5412;59.450;18.124;2023-10-19T03:55:24;1.17;;;0.80;;
10721;SDS011;5412;59.450;18.124;2023-10-19T03:57:49;2.53;;;1.10;;
10721;SDS011;5412;59.450;18.124;2023-10-19T04:00:19;1.40;;;0.90;;
10721;SDS011;5412;59.450;18.124;2023-10-19T04:02:49;1.00;;;0.80;;
10721;SDS011;5412;59.450;18.124;2023-10-19T04:05:18;0.97;;;0.87;;
10721;SDS011;5412;59.450;18.124;2023-10-19T04:07:51;2.10;;;0.90;;
10721;SDS011;5412;59.450;18.124;2023-10-19T04:10:23;0.90;;;0.83;;
10721;SDS011;5412;59.450;18.124;2023-10-19T04:12:55;1.37;;;0.80;;
10721;SDS011;5412;59.450;18.124;2023-10-19T04:15:24;1.83;;;1.00;;
10721;SDS011;5412;59.450;18.124;2023-10-19T04:17:51;1.10;;;0.83;;
10721;SDS011;5412;59.450;18.124;2023-10-19T04:20:23;1.70;;;0.93;;
10721;SDS011;5412;59.450;18.124;2023-10-19T04:23:07;1.70;;;0.97;;
10721;SDS011;5412;59.450;18.124;2023-10-19T04:25:36;1.43;;;0.87;;
10721;SDS011;5412;59.450;18.124;2023-10-19T04:28:02;1.27;;;1.03;;
10721;SDS011;5412;59.450;18.124;2023-10-19T04:30:28;2.67;;;1.00;;
10721;SDS011;5412;59.450;18.124;2023-10-19T04:32:54;1.17;;;1.00;;
10721;SDS011;5412;59.450;18.124;2023-10-19T04:35:23;1.17;;;1.07;;
10721;SDS011;5412;59.450;18.124;2023-10-19T04:37:52;1.73;;;1.00;;
10721;SDS011;5412;59.450;18.124;2023-10-19T04:40:21;3.93;;;1.33;;
10721;SDS011;5412;59.450;18.124;2023-10-19T04:42:48;2.67;;;1.00;;
10721;SDS011;5412;59.450;18.124;2023-10-19T04:45:17;1.83;;;1.07;;
10721;SDS011;5412;59.450;18.124;2023-10-19T04:47:43;5.57;;;1.20;;
10721;SDS011;5412;59.450;18.124;2023-10-19T04:50:09;6.53;;;1.50;;
10721;SDS011;5412;59.450;18.124;2023-10-19T04:52:36;3.40;;;1.53;;
10721;SDS011;5412;59.450;18.124;2023-10-19T04:55:02;4.50;;;1.30;;
10721;SDS011;5412;59.450;18.124;2023-10-19T04:57:28;1.53;;;1.20;;
10721;SDS011;5412;59.450;18.124;2023-10-19T04:59:55;2.00;;;1.40;;
10721;SDS011;5412;59.450;18.124;2023-10-19T05:02:21;2.07;;;1.60;;
10721;SDS011;5412;59.450;18.124;2023-10-19T05:04:48;2.83;;;1.33;;
10721;SDS011;5412;59.450;18.124;2023-10-19T05:07:13;1.97;;;1.07;;
10721;SDS011;5412;59.450;18.124;2023-10-19T05:09:42;3.73;;;1.17;;
10721;SDS011;5412;59.450;18.124;2023-10-19T05:12:10;2.47;;;1.70;;
10721;SDS011;5412;59.450;18.124;2023-10-19T05:14:36;2.20;;;1.17;;
10721;SDS011;5412;59.450;18.124;2023-10-19T05:17:03;2.50;;;1.30;;
10721;SDS011;5412;59.450;18.124;2023-10-19T05:19:34;1.60;;;1.17;;
10721;SDS011;5412;59.450;18.124;2023-10-19T05:22:04;4.13;;;1.47;;
10721;SDS011;5412;59.450;18.124;2023-10-19T05:24:31;3.90;;;1.70;;
10721;SDS011;5412;59.450;18.124;2023-10-19T05:26:57;1.43;;;1.30;;
10721;SDS011;5412;59.450;18.124;2023-10-19T05:29:23;1.37;;;1.10;;
10721;SDS011;5412;59.450;18.124;2023-10-19T05:31:50;3.43;;;1.30;;
10721;SDS011;5412;59.450;18.124;2023-10-19T05:34:21;2.60;;;1.80;;
10721;SDS011;5412;59.450;18.124;2023-10-19T05:36:47;2.30;;;1.57;;
10721;SDS011;5412;59.450;18.124;2023-10-19T05:39:16;3.47;;;1.70;;
10721;SDS011;5412;59.450;18.124;2023-10-19T05:41:42;2.63;;;1.60;;
10721;SDS011;5412;59.450;18.124;2023-10-19T05:44:08;4.30;;;1.47;;
10721;SDS011;5412;59.450;18.124;2023-10-19T05:46:34;3.13;;;1.60;;
10721;SDS011;5412;59.450;18.124;2023-10-19T05:49:01;3.50;;;1.90;;
10721;SDS011;5412;59.450;18.124;2023-10-19T05:51:29;4.00;;;1.70;;
10721;SDS011;5412;59.450;18.124;2023-10-19T05:53:57;6.10;;;2.20;;
10721;SDS011;5412;59.450;18.124;2023-10-19T05:56:29;2.07;;;1.70;;
10721;SDS011;5412;59.450;18.124;2023-10-19T05:59:01;4.37;;;1.87;;
10721;SDS011;5412;59.450;18.124;2023-10-19T06:01:27;6.13;;;2.13;;
10721;SDS011;5412;59.450;18.124;2023-10-19T06:03:53;3.63;;;1.90;;
10721;SDS011;5412;59.450;18.124;2023-10-19T06:06:24;3.43;;;2.27;;
10721;SDS011;5412;59.450;18.124;2023-10-19T06:08:51;5.10;;;2.13;;
10721;SDS011;5412;59.450;18.124;2023-10-19T06:11:18;4.60;;;2.13;;
10721;SDS011;5412;59.450;18.124;2023-10-19T06:13:45;3.73;;;2.10;;
10721;SDS011;5412;59.450;18.124;2023-10-19T06:16:12;4.97;;;2.33;;
10721;SDS011;5412;59.450;18.124;2023-10-19T06:18:39;1.67;;;1.50;;
10721;SDS011;5412;59.450;18.124;2023-10-19T06:21:05;2.83;;;1.90;;
10721;SDS011;5412;59.450;18.124;2023-10-19T06:23:30;2.97;;;2.07;;
10721;SDS011;5412;59.450;18.124;2023-10-19T06:25:57;6.50;;;2.80;;
10721;SDS011;5412;59.450;18.124;2023-10-19T06:28:26;3.93;;;1.63;;
10721;SDS011;5412;59.450;18.124;2023-10-19T06:30:51;2.60;;;1.80;;
10721;SDS011;5412;59.450;18.124;2023-10-19T06:33:18;4.80;;;1.87;;
10721;SDS011;5412;59.450;18.124;2023-10-19T06:35:44;2.87;;;1.77;;
10721;SDS011;5412;59.450;18.124;2023-10-19T06:38:10;2.63;;;1.60;;
10721;SDS011;5412;59.450;18.124;2023-10-19T06:40:36;3.40;;;1.13;;
10721;SDS011;5412;59.450;18.124;2023-10-19T06:43:01;3.07;;;1.30;;
10721;SDS011;5412;59.450;18.124;2023-10-19T06:45:28;1.43;;;1.10;;
10721;SDS011;5412;59.450;18.124;2023-10-19T06:47:57;2.27;;;1.30;;
10721;SDS011;5412;59.450;18.124;2023-10-19T06:50:25;3.53;;;1.17;;
10721;SDS011;5412;59.450;18.124;2023-10-19T06:52:51;1.30;;;1.20;;
10721;SDS011;5412;59.450;18.124;2023-10-19T06:55:19;1.10;;;1.00;;
10721;SDS011;5412;59.450;18.124;2023-10-19T06:57:49;1.87;;;1.17;;
10721;SDS011;5412;59.450;18.124;2023-10-19T07:00:16;1.87;;;1.33;;
10721;SDS011;5412;59.450;18.124;2023-10-19T07:02:50;3.00;;;1.50;;
10721;SDS011;5412;59.450;18.124;2023-10-19T07:05:16;2.37;;;1.13;;
10721;SDS011;5412;59.450;18.124;2023-10-19T07:07:55;1.03;;;0.93;;
10721;SDS011;5412;59.450;18.124;2023-10-19T07:10:23;1.50;;;0.90;;
10721;SDS011;5412;59.450;18.124;2023-10-19T07:12:51;1.53;;;1.23;;
10721;SDS011;5412;59.450;18.124;2023-10-19T07:15:21;1.27;;;1.10;;
10721;SDS011;5412;59.450;18.124;2023-10-19T07:17:49;1.00;;;0.90;;
10721;SDS011;5412;59.450;18.124;2023-10-19T07:20:17;1.57;;;1.10;;
10721;SDS011;5412;59.450;18.124;2023-10-19T07:22:52;1.77;;;1.50;;
10721;SDS011;5412;59.450;18.124;2023-10-19T07:25:24;1.87;;;1.30;;
10721;SDS011;5412;59.450;18.124;2023-10-19T07:27:54;3.13;;;1.10;;
10721;SDS011;5412;59.450;18.124;2023-10-19T07:30:24;1.37;;;1.10;;
10721;SDS011;5412;59.450;18.124;2023-10-19T07:32:54;0.87;;;0.87;;
10721;SDS011;5412;59.450;18.124;2023-10-19T07:35:23;2.00;;;1.00;;
10721;SDS011;5412;59.450;18.124;2023-10-19T07:37:51;1.13;;;0.70;;
10721;SDS011;5412;59.450;18.124;2023-10-19T07:40:17;2.17;;;0.73;;
10721;SDS011;5412;59.450;18.124;2023-10-19T07:42:46;2.83;;;0.70;;
10721;SDS011;5412;59.450;18.124;2023-10-19T07:45:14;2.83;;;0.80;;
10721;SDS011;5412;59.450;18.124;2023-10-19T07:47:40;2.77;;;0.70;;
10721;SDS011;5412;59.450;18.124;2023-10-19T07:50:10;2.00;;;0.80;;
10721;SDS011;5412;59.450;18.124;2023-10-19T07:52:40;1.53;;;0.90;;
10721;SDS011;5412;59.450;18.124;2023-10-19T07:55:18;0.50;;;0.50;;
10721;SDS011;5412;59.450;18.124;2023-10-19T07:57:45;3.40;;;1.20;;
10721;SDS011;5412;59.450;18.124;2023-10-19T08:00:11;1.60;;;0.80;;
10721;SDS011;5412;59.450;18.124;2023-10-19T08:02:42;1.73;;;1.00;;
10721;SDS011;5412;59.450;18.124;2023-10-19T08:05:10;1.20;;;0.70;;
10721;SDS011;5412;59.450;18.124;2023-10-19T08:07:38;1.20;;;0.90;;
10721;SDS011;5412;59.450;18.124;2023-10-19T08:10:08;1.27;;;0.90;;
10721;SDS011;5412;59.450;18.124;2023-10-19T08:12:36;1.23;;;0.90;;
10721;SDS011;5412;59.450;18.124;2023-10-19T08:15:02;1.03;;;0.70;;
10721;SDS011;5412;59.450;18.124;2023-10-19T08:17:29;0.73;;;0.70;;
10721;SDS011;5412;59.450;18.124;2023-10-19T08:19:55;1.33;;;0.70;;
10721;SDS011;5412;59.450;18.124;2023-10-19T08:22:22;2.10;;;0.73;;
10721;SDS011;5412;59.450;18.124;2023-10-19T08:24:49;0.70;;;0.70;;
10721;SDS011;5412;59.450;18.124;2023-10-19T08:27:15;0.80;;;0.80;;
10721;SDS011;5412;59.450;18.124;2023-10-19T08:29:42;2.40;;;0.90;;
10721;SDS011;5412;59.450;18.124;2023-10-19T08:32:08;1.30;;;0.83;;
10721;SDS011;5412;59.450;18.124;2023-10-19T08:34:37;0.50;;;0.50;;
10721;SDS011;5412;59.450;18.124;2023-10-19T08:37:04;0.70;;;0.70;;
10721;SDS011;5412;59.450;18.124;2023-10-19T08:39:32;0.60;;;0.60;;
10721;SDS011;5412;59.450;18.124;2023-10-19T08:42:03;1.53;;;0.70;;
10721;SDS011;5412;59.450;18.124;2023-10-19T08:44:30;0.70;;;0.70;;
10721;SDS011;5412;59.450;18.124;2023-10-19T08:47:00;1.27;;;0.70;;
10721;SDS011;5412;59.450;18.124;2023-10-19T08:49:26;2.70;;;0.70;;
10721;SDS011;5412;59.450;18.124;2023-10-19T08:51:53;0.60;;;0.60;;
10721;SDS011;5412;59.450;18.124;2023-10-19T08:54:19;1.80;;;0.70;;
10721;SDS011;5412;59.450;18.124;2023-10-19T08:56:46;3.03;;;0.83;;
10721;SDS011;5412;59.450;18.124;2023-10-19T08:59:14;1.27;;;0.60;;
10721;SDS011;5412;59.450;18.124;2023-10-19T09:01:41;1.00;;;0.93;;
10721;SDS011;5412;59.450;18.124;2023-10-19T09:04:10;1.93;;;0.80;;
10721;SDS011;5412;59.450;18.124;2023-10-19T09:06:39;1.20;;;1.07;;
10721;SDS011;5412;59.450;18.124;2023-10-19T09:09:12;1.30;;;0.73;;
10721;SDS011;5412;59.450;18.124;2023-10-19T09:11:50;1.03;;;0.77;;
10721;SDS011;5412;59.450;18.124;2023-10-19T09:14:39;1.13;;;0.80;;
10721;SDS011;5412;59.450;18.124;2023-10-19T09:17:08;1.27;;;0.80;;
10721;SDS011;5412;59.450;18.124;2023-10-19T09:22:05;1.10;;;0.80;;
10721;SDS011;5412;59.450;18.124;2023-10-19T09:24:44;1.37;;;1.03;;
10721;SDS011;5412;59.450;18.124;2023-10-19T09:27:11;0.70;;;0.60;;
10721;SDS011;5412;59.450;18.124;2023-10-19T09:29:38;1.37;;;1.07;;
10721;SDS011;5412;59.450;18.124;2023-10-19T09:32:06;1.10;;;0.97;;
10721;SDS011;5412;59.450;18.124;2023-10-19T09:34:32;1.53;;;0.90;;
10721;SDS011;5412;59.450;18.124;2023-10-19T09:37:01;1.00;;;0.90;;
10721;SDS011;5412;59.450;18.124;2023-10-19T09:39:31;1.00;;;0.90;;
10721;SDS011;5412;59.450;18.124;2023-10-19T09:42:01;2.60;;;1.00;;
10721;SDS011;5412;59.450;18.124;2023-10-19T09:44:43;1.63;;;0.80;;
10721;SDS011;5412;59.450;18.124;2023-10-19T09:47:11;3.20;;;0.83;;
10721;SDS011;5412;59.450;18.124;2023-10-19T09:49:42;1.27;;;0.70;;
10721;SDS011;5412;59.450;18.124;2023-10-19T09:52:09;2.13;;;1.03;;
10721;SDS011;5412;59.450;18.124;2023-10-19T09:55:22;1.53;;;0.90;;
10721;SDS011;5412;59.450;18.124;2023-10-19T09:57:50;1.70;;;0.90;;
10721;SDS011;5412;59.450;18.124;2023-10-19T10:00:20;2.03;;;1.03;;
10721;SDS011;5412;59.450;18.124;2023-10-19T10:02:50;0.77;;;0.77;;
10721;SDS011;5412;59.450;18.124;2023-10-19T10:10:45;2.77;;;1.20;;
10721;SDS011;5412;59.450;18.124;2023-10-19T10:15:55;2.13;;;1.20;;
10721;SDS011;5412;59.450;18.124;2023-10-19T10:18:31;3.67;;;1.30;;
10721;SDS011;5412;59.450;18.124;2023-10-19T10:21:12;2.33;;;1.00;;
10721;SDS011;5412;59.450;18.124;2023-10-19T10:23:47;1.70;;;1.10;;
10721;SDS011;5412;59.450;18.124;2023-10-19T10:26:14;3.27;;;1.30;;
10721;SDS011;5412;59.450;18.124;2023-10-19T10:28:50;1.53;;;1.30;;
10721;SDS011;5412;59.450;18.124;2023-10-19T10:31:51;3.03;;;1.37;;
10721;SDS011;5412;59.450;18.124;2023-10-19T10:37:06;1.40;;;1.30;;
10721;SDS011;5412;59.450;18.124;2023-10-19T10:39:39;3.93;;;1.60;;
10721;SDS011;5412;59.450;18.124;2023-10-19T10:42:10;2.00;;;1.40;;
10721;SDS011;5412;59.450;18.124;2023-10-19T10:44:46;2.73;;;1.77;;
10721;SDS011;5412;59.450;18.124;2023-10-19T10:47:16;2.67;;;1.40;;
10721;SDS011;5412;59.450;18.124;2023-10-19T10:52:23;2.03;;;1.50;;
10721;SDS011;5412;59.450;18.124;2023-10-19T10:54:50;2.47;;;1.40;;
10721;SDS011;5412;59.450;18.124;2023-10-19T10:57:15;2.40;;;1.47;;
10721;SDS011;5412;59.450;18.124;2023-10-19T10:59:41;1.70;;;1.40;;
10721;SDS011;5412;59.450;18.124;2023-10-19T11:02:17;2.47;;;1.30;;
10721;SDS011;5412;59.450;18.124;2023-10-19T11:04:47;2.47;;;1.70;;
10721;SDS011;5412;59.450;18.124;2023-10-19T11:07:19;1.23;;;1.13;;
10721;SDS011;5412;59.450;18.124;2023-10-19T11:09:46;1.20;;;1.10;;
10721;SDS011;5412;59.450;18.124;2023-10-19T11:12:13;4.10;;;1.03;;
10721;SDS011;5412;59.450;18.124;2023-10-19T11:14:52;1.57;;;1.47;;
10721;SDS011;5412;59.450;18.124;2023-10-19T11:17:24;1.40;;;1.30;;
10721;SDS011;5412;59.450;18.124;2023-10-19T11:19:56;2.90;;;1.23;;
10721;SDS011;5412;59.450;18.124;2023-10-19T11:22:25;6.93;;;1.40;;
10721;SDS011;5412;59.450;18.124;2023-10-19T11:24:55;1.43;;;1.33;;
10721;SDS011;5412;59.450;18.124;2023-10-19T11:27:27;1.73;;;1.50;;
10721;SDS011;5412;59.450;18.124;2023-10-19T11:29:57;1.57;;;1.30;;
10721;SDS011;5412;59.450;18.124;2023-10-19T11:32:35;3.73;;;1.63;;
10721;SDS011;5412;59.450;18.124;2023-10-19T11:35:05;1.70;;;1.20;;
10721;SDS011;5412;59.450;18.124;2023-10-19T11:37:50;2.80;;;1.87;;
10721;SDS011;5412;59.450;18.124;2023-10-19T11:40:20;3.70;;;1.30;;
10721;SDS011;5412;59.450;18.124;2023-10-19T11:42:47;3.07;;;1.40;;
10721;SDS011;5412;59.450;18.124;2023-10-19T11:45:17;3.47;;;1.47;;
10721;SDS011;5412;59.450;18.124;2023-10-19T11:47:43;3.50;;;1.53;;
10721;SDS011;5412;59.450;18.124;2023-10-19T11:50:10;2.13;;;1.30;;
10721;SDS011;5412;59.450;18.124;2023-10-19T11:52:39;3.73;;;1.70;;
10721;SDS011;5412;59.450;18.124;2023-10-19T11:55:05;1.67;;;1.20;;
10721;SDS011;5412;59.450;18.124;2023-10-19T11:57:33;2.23;;;1.53;;
10721;SDS011;5412;59.450;18.124;2023-10-19T12:00:00;2.50;;;1.40;;
10721;SDS011;5412;59.450;18.124;2023-10-19T12:02:26;2.37;;;1.40;;
10721;SDS011;5412;59.450;18.124;2023-10-19T12:04:52;1.73;;;1.23;;
10721;SDS011;5412;59.450;18.124;2023-10-19T12:07:17;3.10;;;1.30;;
10721;SDS011;5412;59.450;18.124;2023-10-19T12:09:43;3.23;;;1.43;;
10721;SDS011;5412;59.450;18.124;2023-10-19T12:12:10;1.20;;;1.10;;
10721;SDS011;5412;59.450;18.124;2023-10-19T12:14:36;4.43;;;1.30;;
10721;SDS011;5412;59.450;18.124;2023-10-19T12:17:02;1.60;;;1.50;;
10721;SDS011;5412;59.450;18.124;2023-10-19T12:19:31;5.60;;;1.30;;
10721;SDS011;5412;59.450;18.124;2023-10-19T12:21:57;2.17;;;1.20;;
10721;SDS011;5412;59.450;18.124;2023-10-19T12:24:23;1.83;;;1.20;;
10721;SDS011;5412;59.450;18.124;2023-10-19T12:26:49;2.40;;;1.23;;
10721;SDS011;5412;59.450;18.124;2023-10-19T12:29:16;1.60;;;1.10;;
10721;SDS011;5412;59.450;18.124;2023-10-19T12:31:45;1.30;;;1.20;;
10721;SDS011;5412;59.450;18.124;2023-10-19T12:34:14;3.47;;;1.37;;
10721;SDS011;5412;59.450;18.124;2023-10-19T12:36:41;2.30;;;1.20;;
10721;SDS011;5412;59.450;18.124;2023-10-19T12:39:10;3.40;;;1.20;;
10721;SDS011;5412;59.450;18.124;2023-10-19T12:41:55;2.33;;;1.30;;
10721;SDS011;5412;59.450;18.124;2023-10-19T12:44:22;1.70;;;1.10;;
10721;SDS011;5412;59.450;18.124;2023-10-19T12:46:47;2.17;;;1.33;;
10721;SDS011;5412;59.450;18.124;2023-10-19T12:49:13;1.10;;;1.00;;
10721;SDS011;5412;59.450;18.124;2023-10-19T12:51:41;1.77;;;1.10;;
10721;SDS011;5412;59.450;18.124;2023-10-19T12:54:07;2.67;;;1.10;;
10721;SDS011;5412;59.450;18.124;2023-10-19T12:56:35;1.40;;;1.10;;
10721;SDS011;5412;59.450;18.124;2023-10-19T12:59:01;3.40;;;1.03;;
10721;SDS011;5412;59.450;18.124;2023-10-19T13:01:26;1.47;;;1.10;;
10721;SDS011;5412;59.450;18.124;2023-10-19T13:03:53;2.33;;;1.07;;
10721;SDS011;5412;59.450;18.124;2023-10-19T13:06:19;1.10;;;1.00;;
10721;SDS011;5412;59.450;18.124;2023-10-19T13:08:44;1.70;;;1.00;;
10721;SDS011;5412;59.450;18.124;2023-10-19T13:11:11;3.10;;;1.00;;
10721;SDS011;5412;59.450;18.124;2023-10-19T13:13:39;1.00;;;0.90;;
10721;SDS011;5412;59.450;18.124;2023-10-19T13:16:05;2.43;;;0.90;;
10721;SDS011;5412;59.450;18.124;2023-10-19T13:18:32;2.27;;;1.20;;
10721;SDS011;5412;59.450;18.124;2023-10-19T13:20:59;3.30;;;1.00;;
10721;SDS011;5412;59.450;18.124;2023-10-19T13:23:34;2.10;;;1.00;;
10721;SDS011;5412;59.450;18.124;2023-10-19T13:26:01;6.23;;;1.17;;
10721;SDS011;5412;59.450;18.124;2023-10-19T13:28:32;1.63;;;1.10;;
10721;SDS011;5412;59.450;18.124;2023-10-19T13:30:58;8.20;;;4.40;;
10721;SDS011;5412;59.450;18.124;2023-10-19T13:33:24;3.50;;;2.20;;
10721;SDS011;5412;59.450;18.124;2023-10-19T13:35:50;3.27;;;1.87;;
10721;SDS011;5412;59.450;18.124;2023-10-19T13:38:16;1.90;;;1.00;;
10721;SDS011;5412;59.450;18.124;2023-10-19T13:40:45;1.50;;;1.10;;
10721;SDS011;5412;59.450;18.124;2023-10-19T13:43:11;1.70;;;0.93;;
10721;SDS011;5412;59.450;18.124;2023-10-19T13:45:42;1.13;;;1.00;;
10721;SDS011;5412;59.450;18.124;2023-10-19T13:48:09;3.25;;;1.13;;
10721;SDS011;5412;59.450;18.124;2023-10-19T13:50:40;1.58;;;1.20;;
10721;SDS011;5412;59.450;18.124;2023-10-19T13:53:08;1.13;;;0.98;;
10721;SDS011;5412;59.450;18.124;2023-10-19T13:55:35;2.55;;;1.00;;
10721;SDS011;5412;59.450;18.124;2023-10-19T13:58:01;1.17;;;1.08;;
10721;SDS011;5412;59.450;18.124;2023-10-19T14:00:27;1.10;;;0.93;;
10721;SDS011;5412;59.450;18.124;2023-10-19T14:03:01;2.67;;;1.00;;
10721;SDS011;5412;59.450;18.124;2023-10-19T14:05:29;0.90;;;0.83;;
10721;SDS011;5412;59.450;18.124;2023-10-19T14:08:01;1.47;;;1.20;;
10721;SDS011;5412;59.450;18.124;2023-10-19T14:10:29;1.70;;;0.90;;
10721;SDS011;5412;59.450;18.124;2023-10-19T14:12:56;1.97;;;1.20;;
10721;SDS011;5412;59.450;18.124;2023-10-19T14:15:22;1.63;;;0.90;;
10721;SDS011;5412;59.450;18.124;2023-10-19T14:17:48;2.20;;;1.17;;
10721;SDS011;5412;59.450;18.124;2023-10-19T14:20:14;2.20;;;1.30;;
10721;SDS011;5412;59.450;18.124;2023-10-19T14:22:42;2.30;;;1.33;;
10721;SDS011;5412;59.450;18.124;2023-10-19T14:25:09;1.07;;;0.80;;
10721;SDS011;5412;59.450;18.124;2023-10-19T14:27:39;2.93;;;1.20;;
10721;SDS011;5412;59.450;18.124;2023-10-19T14:30:13;1.20;;;1.10;;
10721;SDS011;5412;59.450;18.124;2023-10-19T14:32:41;1.23;;;1.00;;
10721;SDS011;5412;59.450;18.124;2023-10-19T14:35:08;1.10;;;1.00;;
10721;SDS011;5412;59.450;18.124;2023-10-19T14:37:39;1.30;;;1.00;;
10721;SDS011;5412;59.450;18.124;2023-10-19T14:40:08;3.63;;;1.27;;
10721;SDS011;5412;59.450;18.124;2023-10-19T14:42:38;2.73;;;1.10;;
10721;SDS011;5412;59.450;18.124;2023-10-19T14:45:14;2.27;;;1.37;;
10721;SDS011;5412;59.450;18.124;2023-10-19T14:47:46;1.87;;;1.27;;
10721;SDS011;5412;59.450;18.124;2023-10-19T14:50:13;2.23;;;1.27;;
10721;SDS011;5412;59.450;18.124;2023-10-19T14:52:40;1.30;;;1.10;;
10721;SDS011;5412;59.450;18.124;2023-10-19T14:55:10;1.70;;;1.27;;
10721;SDS011;5412;59.450;18.124;2023-10-19T14:57:38;1.40;;;1.30;;
10721;SDS011;5412;59.450;18.124;2023-10-19T15:00:06;1.17;;;1.03;;
10721;SDS011;5412;59.450;18.124;2023-10-19T15:02:54;2.47;;;1.50;;
10721;SDS011;5412;59.450;18.124;2023-10-19T15:05:22;4.00;;;1.53;;
10721;SDS011;5412;59.450;18.124;2023-10-19T15:07:51;2.33;;;1.83;;
10721;SDS011;5412;59.450;18.124;2023-10-19T15:10:27;1.30;;;1.20;;
10721;SDS011;5412;59.450;18.124;2023-10-19T15:12:53;1.73;;;1.30;;
10721;SDS011;5412;59.450;18.124;2023-10-19T15:15:27;3.37;;;1.40;;